Kezdőlap
METAR-TAF:

METAR-TAF

Repülőterek :

Lugano, Svájc

földrajzi szélesség: 46-00N, földrajzi hosszúság: 008-58E, magasság: 273 m

Jelenlegi meteorológiai megfigyelések

A jelentés 12 perccel ezelõtt készült, 12:20 UTC
Különbözõ irányokból fújó szél 1 kt
Hőmérséklet 8°C
Páratartalom 71%
Légköri nyomás 1016 hPa
Látótávolság 10 km, vagy több
Borult 4800 lábon

METAR: LSZA 151220Z VRB01KT 9999 OVC048 08/03 Q1016 NOSIG

Idő: 13:32 (12:32 UTC)

Előrejelzés

A jelentés 1 órával és 7 perccel ezelõtt készült, 11:25 UTC
Az előrejelzés 15-én 12 óra UTC és 15-én 21 óra UTC között érvényes
Különbözõ irányokból fújó szél 3 kt
Látótávolság 10 km, vagy több
Szakadozott felhőzet 6000 lábon

TAF: LSZA 151125Z 1512/1521 VRB03KT 9999 BKN060

Meteorológiai megfigyelések és előrejelzések több, mint 4000 repülőtéren (METAR és TAF jelentéseket).

A térképen piros és sárga pontok jelzik az elérhető meteorológiai állomásokat.

Mozgassa az egeret a pont fölött, hogy megjelenjen az állomás neve.

Azután kattintson az időjárási megfigyelések és előrejelzések megtekintéséhez.

A térkép megváltoztatása: kattintson a fekete keresztel jelölt zöld gombra ráközelítéshez, a vonallal jelölt zöld gombra távolításhoz, vagy a zöld nyilakra a szomszédos térképek eléréséhez.


METAR-TAF: